createdAt,value
2022-12-07T00:01:08.395Z,13.10
2022-12-07T00:03:36.827Z,12.80
2022-12-07T00:06:06.254Z,13.63
2022-12-07T00:08:35.132Z,12.90
2022-12-07T00:11:04.207Z,13.90
2022-12-07T00:13:34.532Z,14.00
2022-12-07T00:16:03.850Z,12.63
2022-12-07T00:18:31.942Z,13.60
2022-12-07T00:21:03.600Z,13.80
2022-12-07T00:23:31.636Z,12.27
2022-12-07T00:26:05.966Z,15.17
2022-12-07T00:28:35.623Z,11.97
2022-12-07T00:31:08.310Z,12.90
2022-12-07T00:33:37.205Z,12.97
2022-12-07T00:36:07.637Z,13.70
2022-12-07T00:38:37.263Z,14.20
2022-12-07T00:41:07.380Z,14.17
2022-12-07T00:43:36.596Z,15.10
2022-12-07T00:46:04.622Z,13.90
2022-12-07T00:48:32.879Z,13.23
2022-12-07T00:51:01.466Z,13.77
2022-12-07T00:53:29.891Z,12.80
2022-12-07T00:55:58.115Z,12.10
2022-12-07T00:58:26.145Z,13.47
2022-12-07T01:00:55.361Z,12.00
2022-12-07T01:03:23.788Z,12.77
2022-12-07T01:05:52.981Z,12.20
2022-12-07T01:08:21.008Z,13.07
2022-12-07T01:10:49.081Z,13.37
2022-12-07T01:13:17.325Z,12.30
2022-12-07T01:15:46.082Z,12.73
2022-12-07T01:18:15.300Z,12.57
2022-12-07T01:20:43.256Z,13.40
2022-12-07T01:23:11.118Z,11.97
2022-12-07T01:25:39.025Z,13.10
2022-12-07T01:28:06.906Z,13.10
2022-12-07T01:30:34.878Z,13.10
2022-12-07T01:33:02.839Z,12.97
2022-12-07T01:35:35.335Z,13.17
2022-12-07T01:38:03.183Z,12.80
2022-12-07T01:40:31.027Z,13.30
2022-12-07T01:42:58.878Z,12.87
2022-12-07T01:45:44.707Z,13.30
2022-12-07T01:48:14.995Z,13.13
2022-12-07T01:50:45.409Z,13.67
2022-12-07T01:53:14.681Z,13.10
2022-12-07T01:55:45.885Z,13.20
2022-12-07T01:58:15.404Z,15.10
2022-12-07T02:00:43.626Z,15.80
2022-12-07T02:03:18.529Z,14.27
2022-12-07T02:05:49.993Z,15.43
2022-12-07T02:08:19.604Z,17.57
2022-12-07T02:10:47.527Z,18.33
2022-12-07T02:13:18.568Z,17.93
2022-12-07T02:16:07.054Z,17.90
2022-12-07T02:18:46.699Z,17.10
2022-12-07T02:21:23.498Z,17.13
2022-12-07T02:24:18.386Z,17.07
2022-12-07T02:27:12.881Z,17.13
2022-12-07T02:29:49.148Z,16.47
2022-12-07T02:32:23.407Z,17.10
2022-12-07T02:34:54.162Z,17.43
2022-12-07T02:37:31.702Z,15.63
2022-12-07T02:40:04.973Z,15.40
2022-12-07T02:42:37.262Z,14.73
2022-12-07T02:45:08.861Z,15.20
2022-12-07T02:47:39.065Z,14.60
2022-12-07T02:50:08.604Z,14.00
2022-12-07T02:52:36.501Z,13.90
2022-12-07T02:55:05.532Z,12.47
2022-12-07T02:57:56.098Z,13.17
2022-12-07T03:00:25.499Z,13.03
2022-12-07T03:02:57.987Z,11.00
2022-12-07T03:05:40.290Z,10.60
2022-12-07T03:08:15.334Z,10.90
2022-12-07T03:10:52.933Z,9.70
2022-12-07T03:13:26.086Z,10.00
2022-12-07T03:16:00.184Z,10.77
2022-12-07T03:18:32.508Z,11.43
2022-12-07T03:21:04.347Z,10.90
2022-12-07T03:23:35.368Z,10.57
2022-12-07T03:26:05.116Z,10.67
2022-12-07T03:28:36.931Z,11.73
2022-12-07T03:31:13.162Z,10.93
2022-12-07T03:33:46.123Z,11.63
2022-12-07T03:36:19.235Z,11.00
2022-12-07T03:38:51.606Z,11.50
2022-12-07T03:41:24.420Z,11.50
2022-12-07T03:43:52.680Z,11.43
2022-12-07T03:46:30.637Z,10.70
2022-12-07T03:49:05.204Z,8.67
2022-12-07T03:51:38.777Z,9.90
2022-12-07T03:54:12.625Z,9.30
2022-12-07T03:56:42.910Z,11.17
2022-12-07T03:59:11.676Z,10.57
2022-12-07T04:01:43.185Z,10.20
2022-12-07T04:04:11.031Z,10.50
2022-12-07T04:06:39.086Z,9.83
2022-12-07T04:09:06.959Z,10.73
2022-12-07T04:11:34.808Z,9.67
2022-12-07T04:14:20.926Z,10.17
2022-12-07T04:16:51.875Z,10.27
2022-12-07T04:19:21.769Z,10.13
2022-12-07T04:21:49.920Z,9.53
2022-12-07T04:24:18.364Z,10.20
2022-12-07T04:26:48.516Z,10.23
2022-12-07T04:29:17.674Z,9.33
2022-12-07T04:31:46.440Z,10.50
2022-12-07T04:34:16.570Z,9.03
2022-12-07T04:36:44.565Z,9.83
2022-12-07T04:39:21.371Z,9.73
2022-12-07T04:41:49.336Z,8.90
2022-12-07T04:44:18.025Z,8.63
2022-12-07T04:46:46.192Z,7.90
2022-12-07T04:49:16.672Z,8.07
2022-12-07T04:51:45.581Z,7.83
2022-12-07T04:54:13.734Z,6.53
2022-12-07T04:56:42.121Z,5.63
2022-12-07T04:59:11.379Z,5.83
2022-12-07T05:01:39.695Z,6.40
2022-12-07T05:04:07.677Z,5.23
2022-12-07T05:06:37.590Z,5.77
2022-12-07T05:09:05.778Z,4.73
2022-12-07T05:11:42.604Z,5.70
2022-12-07T05:14:13.818Z,5.37
2022-12-07T05:16:42.655Z,5.20
2022-12-07T05:19:11.005Z,6.20
2022-12-07T05:21:41.253Z,5.47
2022-12-07T05:24:10.399Z,5.50
2022-12-07T05:26:38.273Z,5.20
2022-12-07T05:29:06.303Z,5.97
2022-12-07T05:31:35.131Z,6.10
2022-12-07T05:34:03.388Z,6.00
2022-12-07T05:36:32.675Z,6.87
2022-12-07T05:39:02.265Z,5.93
2022-12-07T05:41:47.524Z,6.30
2022-12-07T05:44:15.942Z,4.60
2022-12-07T05:46:43.867Z,4.60
2022-12-07T05:49:11.772Z,5.50
2022-12-07T05:51:39.756Z,5.50
2022-12-07T05:54:08.975Z,4.73
2022-12-07T05:56:36.880Z,4.00
2022-12-07T05:59:22.354Z,3.67
2022-12-07T06:01:50.326Z,4.33
2022-12-07T06:04:18.416Z,4.30
2022-12-07T06:06:46.447Z,4.27
2022-12-07T06:09:16.323Z,3.37
2022-12-07T06:12:01.560Z,3.10
2022-12-07T06:14:29.393Z,3.33
2022-12-07T06:16:57.412Z,3.00
2022-12-07T06:19:25.316Z,3.33
2022-12-07T06:21:53.591Z,3.50
2022-12-07T06:24:23.028Z,3.50
2022-12-07T06:26:51.649Z,2.90
2022-12-07T06:29:19.848Z,2.80
2022-12-07T06:31:47.856Z,3.10
2022-12-07T06:34:17.654Z,2.70
2022-12-07T06:36:45.703Z,3.40
2022-12-07T06:39:13.773Z,3.20
2022-12-07T06:41:42.950Z,3.50
2022-12-07T06:44:11.073Z,5.33
2022-12-07T06:46:38.945Z,4.33
2022-12-07T06:49:07.783Z,3.93
2022-12-07T06:51:37.468Z,4.00
2022-12-07T06:54:05.551Z,5.37
2022-12-07T06:56:33.395Z,4.10
2022-12-07T06:59:03.353Z,3.70
2022-12-07T07:01:31.492Z,2.90
2022-12-07T07:03:59.420Z,2.70
2022-12-07T07:06:27.288Z,3.57
2022-12-07T07:08:55.446Z,3.10
2022-12-07T07:11:23.395Z,3.60
2022-12-07T07:13:51.232Z,4.83
2022-12-07T07:16:20.482Z,4.33
2022-12-07T07:18:48.380Z,5.17
2022-12-07T07:21:16.232Z,4.63
2022-12-07T07:23:44.166Z,4.83
2022-12-07T07:26:12.012Z,4.87
2022-12-07T07:28:40.377Z,4.10
2022-12-07T07:31:08.421Z,5.30
2022-12-07T07:33:37.740Z,4.60
2022-12-07T07:36:06.322Z,5.37
2022-12-07T07:38:34.154Z,6.67
2022-12-07T07:41:02.014Z,7.97
2022-12-07T07:43:29.871Z,8.00
2022-12-07T07:45:57.819Z,7.37
2022-12-07T07:48:26.280Z,6.00
2022-12-07T07:50:55.455Z,6.70
2022-12-07T07:53:23.316Z,6.50
2022-12-07T07:55:55.352Z,7.50
2022-12-07T07:58:23.437Z,7.30
2022-12-07T08:00:51.372Z,6.77
2022-12-07T08:03:19.272Z,7.00
2022-12-07T08:05:47.191Z,6.70
2022-12-07T08:08:16.540Z,6.53
2022-12-07T08:10:44.600Z,5.70
2022-12-07T08:13:15.602Z,5.90
2022-12-07T08:15:45.548Z,5.30
2022-12-07T08:18:14.362Z,5.07
2022-12-07T08:20:43.353Z,4.93
2022-12-07T08:23:12.242Z,5.20
2022-12-07T08:25:41.579Z,5.23
2022-12-07T08:28:09.743Z,6.43
2022-12-07T08:30:37.937Z,5.60
2022-12-07T08:33:05.910Z,5.90
2022-12-07T08:35:35.162Z,5.10
2022-12-07T08:38:04.433Z,5.20
2022-12-07T08:40:32.469Z,6.10
2022-12-07T08:43:01.678Z,5.43
2022-12-07T08:45:33.208Z,6.20
2022-12-07T08:48:05.925Z,5.60
2022-12-07T08:50:34.804Z,6.07
2022-12-07T08:53:03.222Z,6.30
2022-12-07T08:55:31.309Z,5.50
2022-12-07T08:58:01.772Z,5.90
2022-12-07T09:00:29.635Z,6.50
2022-12-07T09:02:57.496Z,7.20
2022-12-07T09:05:25.468Z,6.37
2022-12-07T09:07:57.485Z,6.13
2022-12-07T09:10:25.462Z,6.83
2022-12-07T09:12:53.381Z,6.57
2022-12-07T09:15:22.592Z,6.10
2022-12-07T09:17:50.446Z,5.53
2022-12-07T09:20:20.163Z,4.87
2022-12-07T09:22:51.173Z,4.87
2022-12-07T09:25:19.202Z,3.77
2022-12-07T09:27:47.066Z,4.30
2022-12-07T09:30:15.372Z,4.60
2022-12-07T09:32:44.585Z,5.80
2022-12-07T09:35:12.451Z,6.07
2022-12-07T09:37:40.353Z,5.70
2022-12-07T09:40:09.437Z,5.60
2022-12-07T09:42:40.661Z,4.40
2022-12-07T09:45:14.054Z,4.37
2022-12-07T09:47:41.902Z,3.90
2022-12-07T09:50:16.743Z,3.53
2022-12-07T09:52:46.432Z,3.97
2022-12-07T09:55:16.891Z,3.90
2022-12-07T09:57:46.085Z,4.10
2022-12-07T10:00:18.921Z,3.50
2022-12-07T10:02:48.998Z,4.20
2022-12-07T10:05:24.733Z,3.70
2022-12-07T10:07:52.873Z,4.47
2022-12-07T10:10:26.385Z,4.13
2022-12-07T10:13:01.210Z,3.90
2022-12-07T10:15:49.400Z,3.70
2022-12-07T10:18:29.779Z,3.57
2022-12-07T10:21:15.083Z,4.00
2022-12-07T10:23:44.734Z,3.20
2022-12-07T10:26:33.450Z,2.80
2022-12-07T10:29:03.543Z,3.20
2022-12-07T10:31:31.897Z,3.07
2022-12-07T10:34:01.493Z,3.10
2022-12-07T10:36:37.839Z,3.60
2022-12-07T10:39:14.500Z,3.33
2022-12-07T10:41:57.151Z,3.27
2022-12-07T10:44:27.891Z,2.90
2022-12-07T10:47:21.617Z,3.30
2022-12-07T10:50:14.272Z,2.53
2022-12-07T10:53:08.081Z,2.80
2022-12-07T10:55:49.283Z,2.93
2022-12-07T10:58:33.352Z,2.87
2022-12-07T11:01:11.914Z,2.90
2022-12-07T11:04:09.651Z,3.03
2022-12-07T11:06:45.936Z,3.40
2022-12-07T11:10:06.802Z,3.13
2022-12-07T11:12:38.524Z,3.60
2022-12-07T11:15:15.984Z,3.40
2022-12-07T11:17:54.289Z,3.67
2022-12-07T11:20:37.244Z,3.63
2022-12-07T11:23:14.956Z,3.80
2022-12-07T11:25:54.115Z,3.20
2022-12-07T11:28:36.574Z,4.20
2022-12-07T11:31:14.801Z,3.57
2022-12-07T11:33:48.293Z,4.13
2022-12-07T11:36:34.049Z,5.00
2022-12-07T11:39:05.705Z,4.40
2022-12-07T11:41:38.310Z,4.43
2022-12-07T11:44:08.903Z,3.77
2022-12-07T11:46:49.535Z,3.70
2022-12-07T11:49:25.843Z,3.97
2022-12-07T11:51:59.602Z,4.07
2022-12-07T11:54:31.181Z,4.33
2022-12-07T11:57:05.887Z,4.30
2022-12-07T11:59:40.235Z,2.70
2022-12-07T12:02:16.237Z,2.30
2022-12-07T12:04:53.217Z,3.07
2022-12-07T12:10:22.055Z,3.57
2022-12-07T12:16:12.660Z,3.90
2022-12-07T12:19:20.174Z,3.90
2022-12-07T12:21:54.238Z,4.80
2022-12-07T12:24:28.836Z,4.40
2022-12-07T12:27:03.742Z,4.40
2022-12-07T12:29:37.758Z,5.07
2022-12-07T12:32:18.517Z,4.90
2022-12-07T12:35:21.651Z,5.33
2022-12-07T12:37:49.770Z,4.90
2022-12-07T12:40:46.911Z,4.63
2022-12-07T12:43:47.164Z,5.10
2022-12-07T12:46:51.697Z,4.80
2022-12-07T12:49:38.648Z,4.93
2022-12-07T12:52:50.772Z,4.80
2022-12-07T12:55:24.485Z,4.50
2022-12-07T12:58:33.490Z,4.27
2022-12-07T13:01:48.165Z,5.27
2022-12-07T13:04:37.595Z,4.17
2022-12-07T13:07:11.067Z,3.80
2022-12-07T13:09:44.356Z,4.40
2022-12-07T13:12:16.363Z,4.60
2022-12-07T13:14:56.749Z,4.57
2022-12-07T13:18:02.620Z,3.77
2022-12-07T13:20:51.723Z,3.50
2022-12-07T13:23:25.462Z,3.77
2022-12-07T13:26:02.750Z,3.40
2022-12-07T13:28:38.884Z,3.73
2022-12-07T13:31:26.217Z,3.90
2022-12-07T13:33:54.091Z,3.73
2022-12-07T13:36:25.325Z,4.20
2022-12-07T13:38:57.619Z,4.00
2022-12-07T13:41:28.233Z,3.70
2022-12-07T13:44:03.732Z,3.80
2022-12-07T13:46:46.797Z,4.33
2022-12-07T13:49:24.747Z,4.33
2022-12-07T13:51:53.436Z,4.57
2022-12-07T13:54:23.848Z,4.13
2022-12-07T13:56:53.876Z,4.33
2022-12-07T13:59:24.577Z,4.30
2022-12-07T14:01:53.643Z,4.73
2022-12-07T14:04:35.568Z,4.30
2022-12-07T14:07:19.202Z,4.03
2022-12-07T14:09:56.389Z,4.23
2022-12-07T14:12:24.744Z,4.60
2022-12-07T14:14:53.342Z,3.90
2022-12-07T14:17:23.606Z,4.10
2022-12-07T14:19:55.991Z,4.17
2022-12-07T14:22:30.624Z,3.73
2022-12-07T14:25:19.013Z,4.13
2022-12-07T14:27:52.281Z,4.53
2022-12-07T14:30:21.132Z,4.17
2022-12-07T14:32:52.771Z,4.07
2022-12-07T14:35:21.404Z,4.43
2022-12-07T14:37:51.195Z,3.70
2022-12-07T14:40:22.626Z,3.80
2022-12-07T14:42:55.069Z,4.20
2022-12-07T14:45:24.599Z,3.10
2022-12-07T14:53:36.581Z,3.40
2022-12-07T14:56:07.386Z,3.53
2022-12-07T14:58:35.603Z,3.93
2022-12-07T15:01:03.472Z,4.10
2022-12-07T15:03:31.744Z,3.70
2022-12-07T15:06:00.159Z,4.53
2022-12-07T15:08:28.566Z,5.23
2022-12-07T15:10:56.523Z,4.50
2022-12-07T15:13:43.432Z,5.20
2022-12-07T15:16:15.054Z,4.77
2022-12-07T15:18:53.226Z,4.50
2022-12-07T15:21:30.872Z,5.73
2022-12-07T15:23:58.845Z,4.90
2022-12-07T15:26:26.722Z,5.37
2022-12-07T15:28:56.475Z,4.90
2022-12-07T15:31:54.117Z,5.40
2022-12-07T15:34:12.231Z,5.83
2022-12-07T15:36:40.185Z,5.57
2022-12-07T15:39:15.613Z,5.70
2022-12-07T15:41:43.592Z,5.43
2022-12-07T15:44:32.205Z,5.90
2022-12-07T15:47:00.259Z,6.00
2022-12-07T15:49:29.004Z,7.47
2022-12-07T15:51:57.043Z,6.47
2022-12-07T15:54:26.789Z,6.77
2022-12-07T15:56:55.057Z,5.90
2022-12-07T15:59:24.956Z,5.87
2022-12-07T16:01:53.163Z,6.00
2022-12-07T16:04:21.104Z,5.47
2022-12-07T16:06:49.027Z,6.23
2022-12-07T16:09:16.912Z,6.27
2022-12-07T16:11:44.825Z,6.13
2022-12-07T16:14:12.712Z,6.30
2022-12-07T16:16:42.708Z,6.63
2022-12-07T16:19:11.850Z,5.77
2022-12-07T16:21:39.824Z,6.20
2022-12-07T16:24:08.584Z,7.67
2022-12-07T16:26:36.748Z,8.53
2022-12-07T16:29:04.650Z,11.43
2022-12-07T16:31:32.634Z,8.10
2022-12-07T16:34:01.864Z,7.47
2022-12-07T16:39:19.177Z,10.20
2022-12-07T16:41:47.126Z,9.10
2022-12-07T16:44:15.689Z,7.73
2022-12-07T16:46:44.043Z,7.80
2022-12-07T16:49:15.499Z,6.80
2022-12-07T16:51:44.125Z,7.20
2022-12-07T16:54:13.625Z,8.30
2022-12-07T16:56:42.422Z,7.60
2022-12-07T16:59:10.351Z,7.60
2022-12-07T17:01:39.131Z,6.33
2022-12-07T17:04:08.209Z,6.80
2022-12-07T17:06:37.443Z,5.70
2022-12-07T17:09:09.740Z,7.10
2022-12-07T17:11:38.116Z,7.10
2022-12-07T17:14:23.598Z,6.20
2022-12-07T17:16:51.488Z,7.50
2022-12-07T17:19:19.437Z,7.23
2022-12-07T17:21:49.237Z,7.40
2022-12-07T17:24:18.409Z,6.77
2022-12-07T17:26:47.474Z,6.70
2022-12-07T17:29:18.101Z,6.47
2022-12-07T17:31:51.026Z,7.07
2022-12-07T17:34:20.105Z,5.87
2022-12-07T17:36:49.307Z,7.50
2022-12-07T17:39:19.146Z,7.20
2022-12-07T17:42:04.946Z,6.60
2022-12-07T17:44:33.419Z,6.87
2022-12-07T17:47:02.739Z,6.23
2022-12-07T17:49:30.977Z,6.23
2022-12-07T17:52:17.610Z,6.80
2022-12-07T17:54:45.592Z,6.50
2022-12-07T17:57:13.507Z,6.27
2022-12-07T17:59:41.657Z,6.90
2022-12-07T18:02:11.453Z,6.90
2022-12-07T18:04:40.119Z,7.23
2022-12-07T18:07:09.733Z,7.13
2022-12-07T18:09:37.637Z,7.70
2022-12-07T18:12:06.387Z,7.50
2022-12-07T18:14:34.345Z,6.83
2022-12-07T18:17:02.434Z,7.00
2022-12-07T18:19:30.954Z,7.20
2022-12-07T18:21:58.832Z,7.47
2022-12-07T18:24:34.840Z,6.83
2022-12-07T18:27:04.823Z,6.47
2022-12-07T18:29:32.719Z,5.90
2022-12-07T18:32:01.379Z,7.03
2022-12-07T18:34:30.463Z,6.40
2022-12-07T18:36:58.849Z,6.77
2022-12-07T18:39:33.413Z,7.53
2022-12-07T18:42:02.101Z,7.20
2022-12-07T18:44:30.155Z,6.90
2022-12-07T18:46:58.073Z,6.87
2022-12-07T18:49:26.012Z,5.50
2022-12-07T18:51:53.928Z,5.97
2022-12-07T18:54:21.813Z,5.90
2022-12-07T18:56:51.147Z,6.00
2022-12-07T18:59:37.576Z,8.70
2022-12-07T19:02:05.480Z,8.63
2022-12-07T19:04:33.696Z,9.97
2022-12-07T19:07:01.729Z,10.40
2022-12-07T19:09:29.682Z,9.93
2022-12-07T19:12:03.222Z,9.50
2022-12-07T19:14:34.010Z,8.53
2022-12-07T19:17:03.673Z,9.90
2022-12-07T19:19:33.684Z,8.57
2022-12-07T19:22:02.058Z,8.97
2022-12-07T19:24:30.629Z,8.40
2022-12-07T19:27:00.708Z,7.63
2022-12-07T19:29:31.206Z,9.00
2022-12-07T19:31:59.289Z,8.63
2022-12-07T19:34:27.258Z,10.30
2022-12-07T19:36:55.321Z,6.50
2022-12-07T19:39:23.571Z,8.30
2022-12-07T19:41:51.468Z,9.07
2022-12-07T19:44:23.424Z,8.33
2022-12-07T19:46:51.556Z,8.60
2022-12-07T19:49:21.027Z,8.50
2022-12-07T19:51:51.683Z,8.30
2022-12-07T19:54:20.940Z,9.40
2022-12-07T19:56:50.328Z,7.00
2022-12-07T19:59:21.558Z,8.40
2022-12-07T20:01:50.041Z,6.87
2022-12-07T20:04:20.188Z,5.13
2022-12-07T20:06:48.763Z,4.60
2022-12-07T20:09:17.287Z,6.63
2022-12-07T20:12:02.479Z,7.90
2022-12-07T20:14:33.131Z,8.20
2022-12-07T20:17:01.264Z,8.20
2022-12-07T20:19:29.285Z,9.27
2022-12-07T20:21:57.431Z,11.03
2022-12-07T20:24:26.975Z,11.67
2022-12-07T20:26:55.776Z,11.10
2022-12-07T20:29:26.497Z,11.23
2022-12-07T20:31:57.945Z,11.43
2022-12-07T20:34:26.488Z,11.00
2022-12-07T20:36:54.631Z,13.80
2022-12-07T20:39:23.644Z,12.50
2022-12-07T20:42:09.485Z,10.43
2022-12-07T20:44:37.361Z,11.50
2022-12-07T20:47:08.019Z,11.70
2022-12-07T20:49:36.460Z,10.60
2022-12-07T20:52:04.579Z,12.33
2022-12-07T20:54:32.420Z,12.20
2022-12-07T20:57:00.305Z,14.40
2022-12-07T20:59:28.190Z,11.13
2022-12-07T21:01:56.199Z,11.43
2022-12-07T21:04:25.524Z,10.67
2022-12-07T21:06:53.412Z,10.17
2022-12-07T21:09:26.669Z,9.77
2022-12-07T21:11:55.226Z,9.70
2022-12-07T21:14:23.185Z,10.30
2022-12-07T21:16:51.289Z,11.07
2022-12-07T21:19:19.396Z,9.60
2022-12-07T21:21:48.621Z,10.30
2022-12-07T21:24:16.494Z,11.17
2022-12-07T21:26:44.405Z,10.13
2022-12-07T21:29:12.293Z,9.77
2022-12-07T21:31:40.276Z,10.17
2022-12-07T21:34:08.720Z,9.30
2022-12-07T21:36:37.129Z,8.80
2022-12-07T21:39:06.701Z,8.80
2022-12-07T21:41:36.108Z,9.00
2022-12-07T21:44:07.862Z,9.80
2022-12-07T21:46:36.080Z,8.13
2022-12-07T21:49:05.607Z,8.00
2022-12-07T21:51:33.575Z,7.80
2022-12-07T21:54:02.813Z,6.20
2022-12-07T21:56:34.661Z,6.70
2022-12-07T21:59:04.747Z,4.80
2022-12-07T22:01:37.991Z,7.10
2022-12-07T22:04:07.089Z,6.10
2022-12-07T22:06:36.161Z,4.80
2022-12-07T22:09:05.112Z,5.67
2022-12-07T22:11:34.497Z,5.40
2022-12-07T22:14:20.582Z,5.47
2022-12-07T22:16:48.461Z,5.70
2022-12-07T22:19:16.345Z,7.60
2022-12-07T22:21:44.521Z,5.93
2022-12-07T22:24:13.894Z,5.90
2022-12-07T22:26:44.438Z,5.30
2022-12-07T22:29:12.588Z,4.67
2022-12-07T22:31:41.697Z,4.30
2022-12-07T22:34:15.786Z,4.53
2022-12-07T22:36:43.702Z,4.50
2022-12-07T22:39:11.964Z,6.53
2022-12-07T22:41:40.420Z,6.13
2022-12-07T22:44:09.856Z,6.07
2022-12-07T22:46:38.994Z,5.87
2022-12-07T22:49:07.588Z,5.10
2022-12-07T22:51:37.316Z,5.20
2022-12-07T22:54:07.092Z,5.00
2022-12-07T22:56:36.887Z,4.80
2022-12-07T22:59:06.308Z,5.33
2022-12-07T23:01:36.153Z,5.50
2022-12-07T23:04:04.193Z,5.20
2022-12-07T23:06:33.963Z,4.33
2022-12-07T23:09:04.850Z,5.30
2022-12-07T23:11:51.869Z,6.03
2022-12-07T23:14:22.743Z,5.20
2022-12-07T23:16:51.940Z,5.03
2022-12-07T23:19:19.913Z,4.63
2022-12-07T23:21:48.092Z,4.80
2022-12-07T23:24:16.900Z,4.77
2022-12-07T23:26:46.388Z,5.87
2022-12-07T23:29:17.897Z,4.90
2022-12-07T23:31:46.696Z,5.43
2022-12-07T23:34:16.418Z,5.17
2022-12-07T23:36:44.515Z,4.70
2022-12-07T23:39:12.998Z,5.43
2022-12-07T23:41:41.318Z,4.20
2022-12-07T23:44:09.190Z,5.10
2022-12-07T23:46:37.106Z,4.83
2022-12-07T23:49:06.374Z,5.07
2022-12-07T23:51:35.627Z,4.83
2022-12-07T23:54:03.802Z,4.27
2022-12-07T23:56:34.011Z,4.17
2022-12-07T23:59:02.784Z,4.23
